sensor_id;sensor_type;location;lat;lon;timestamp;temperature;humidity
29417;DHT22;28421;51.030;4.006;2022-07-30T00:01:59;16.50;99.90
29417;DHT22;28421;51.030;4.006;2022-07-30T00:04:25;16.60;99.90
29417;DHT22;28421;51.030;4.006;2022-07-30T00:06:51;16.10;99.90
29417;DHT22;28421;51.030;4.006;2022-07-30T00:09:17;16.60;99.90
29417;DHT22;28421;51.030;4.006;2022-07-30T00:11:43;16.30;99.90
29417;DHT22;28421;51.030;4.006;2022-07-30T00:14:09;16.30;99.90
29417;DHT22;28421;51.030;4.006;2022-07-30T00:16:35;16.20;99.90
29417;DHT22;28421;51.030;4.006;2022-07-30T00:19:01;13.60;99.90
29417;DHT22;28421;51.030;4.006;2022-07-30T00:21:27;16.20;99.90
29417;DHT22;28421;51.030;4.006;2022-07-30T00:23:53;15.90;99.90
29417;DHT22;28421;51.030;4.006;2022-07-30T00:26:18;16.00;99.90
29417;DHT22;28421;51.030;4.006;2022-07-30T00:28:44;15.50;99.90
29417;DHT22;28421;51.030;4.006;2022-07-30T00:31:10;16.00;99.90
29417;DHT22;28421;51.030;4.006;2022-07-30T00:33:36;15.90;99.90
29417;DHT22;28421;51.030;4.006;2022-07-30T00:36:01;16.20;99.90
29417;DHT22;28421;51.030;4.006;2022-07-30T00:38:27;16.00;99.90
29417;DHT22;28421;51.030;4.006;2022-07-30T00:40:53;15.80;99.90
29417;DHT22;28421;51.030;4.006;2022-07-30T00:43:19;15.90;99.90
29417;DHT22;28421;51.030;4.006;2022-07-30T00:45:45;16.40;99.90
29417;DHT22;28421;51.030;4.006;2022-07-30T00:48:12;16.10;99.90
29417;DHT22;28421;51.030;4.006;2022-07-30T00:50:39;16.10;99.90
29417;DHT22;28421;51.030;4.006;2022-07-30T00:53:05;16.30;99.90
29417;DHT22;28421;51.030;4.006;2022-07-30T00:55:31;16.00;99.90
29417;DHT22;28421;51.030;4.006;2022-07-30T00:57:58;16.00;99.90
29417;DHT22;28421;51.030;4.006;2022-07-30T01:00:24;16.00;99.90
29417;DHT22;28421;51.030;4.006;2022-07-30T01:02:50;16.20;99.90
29417;DHT22;28421;51.030;4.006;2022-07-30T01:05:16;16.00;99.90
29417;DHT22;28421;51.030;4.006;2022-07-30T01:07:42;16.20;99.90
29417;DHT22;28421;51.030;4.006;2022-07-30T01:10:10;15.70;99.90
29417;DHT22;28421;51.030;4.006;2022-07-30T01:12:36;15.90;99.90
29417;DHT22;28421;51.030;4.006;2022-07-30T01:15:04;15.70;99.90
29417;DHT22;28421;51.030;4.006;2022-07-30T01:17:31;16.00;99.90
29417;DHT22;28421;51.030;4.006;2022-07-30T01:20:14;15.90;99.90
29417;DHT22;28421;51.030;4.006;2022-07-30T01:27:57;15.70;99.90
29417;DHT22;28421;51.030;4.006;2022-07-30T01:30:27;15.40;99.90
29417;DHT22;28421;51.030;4.006;2022-07-30T01:32:55;15.00;99.90
29417;DHT22;28421;51.030;4.006;2022-07-30T01:35:24;15.10;99.90
29417;DHT22;28421;51.030;4.006;2022-07-30T01:37:52;15.00;99.90
29417;DHT22;28421;51.030;4.006;2022-07-30T01:40:19;15.10;99.90
29417;DHT22;28421;51.030;4.006;2022-07-30T01:42:49;14.80;99.90
29417;DHT22;28421;51.030;4.006;2022-07-30T01:45:16;15.30;99.90
29417;DHT22;28421;51.030;4.006;2022-07-30T01:47:44;15.40;99.90
29417;DHT22;28421;51.030;4.006;2022-07-30T01:50:12;15.10;99.90
29417;DHT22;28421;51.030;4.006;2022-07-30T01:52:41;15.10;99.90
29417;DHT22;28421;51.030;4.006;2022-07-30T01:55:09;15.30;99.90
29417;DHT22;28421;51.030;4.006;2022-07-30T01:57:37;15.30;99.90
29417;DHT22;28421;51.030;4.006;2022-07-30T02:00:06;15.40;99.90
29417;DHT22;28421;51.030;4.006;2022-07-30T02:02:42;15.30;99.90
29417;DHT22;28421;51.030;4.006;2022-07-30T02:05:08;15.50;99.90
29417;DHT22;28421;51.030;4.006;2022-07-30T02:07:55;15.30;99.90
29417;DHT22;28421;51.030;4.006;2022-07-30T02:10:48;15.20;99.90
29417;DHT22;28421;51.030;4.006;2022-07-30T02:13:20;15.00;99.90
29417;DHT22;28421;51.030;4.006;2022-07-30T02:15:58;15.10;99.90
29417;DHT22;28421;51.030;4.006;2022-07-30T02:18:33;14.60;99.90
29417;DHT22;28421;51.030;4.006;2022-07-30T02:21:03;15.00;99.90
29417;DHT22;28421;51.030;4.006;2022-07-30T02:23:30;15.00;99.90
29417;DHT22;28421;51.030;4.006;2022-07-30T02:25:59;15.40;99.90
29417;DHT22;28421;51.030;4.006;2022-07-30T02:28:27;15.20;99.90
29417;DHT22;28421;51.030;4.006;2022-07-30T02:30:59;15.00;99.90
29417;DHT22;28421;51.030;4.006;2022-07-30T02:33:29;15.10;99.90
29417;DHT22;28421;51.030;4.006;2022-07-30T02:35:59;15.10;99.90
29417;DHT22;28421;51.030;4.006;2022-07-30T02:38:27;15.10;99.90
29417;DHT22;28421;51.030;4.006;2022-07-30T02:40:59;15.20;99.90
29417;DHT22;28421;51.030;4.006;2022-07-30T02:43:26;15.30;99.90
29417;DHT22;28421;51.030;4.006;2022-07-30T02:45:54;15.40;99.90
29417;DHT22;28421;51.030;4.006;2022-07-30T02:48:26;15.40;99.90
29417;DHT22;28421;51.030;4.006;2022-07-30T02:50:53;15.60;99.90
29417;DHT22;28421;51.030;4.006;2022-07-30T02:53:21;15.70;99.90
29417;DHT22;28421;51.030;4.006;2022-07-30T02:55:49;15.60;99.90
29417;DHT22;28421;51.030;4.006;2022-07-30T02:58:19;15.60;99.90
29417;DHT22;28421;51.030;4.006;2022-07-30T03:00:49;15.60;99.90
29417;DHT22;28421;51.030;4.006;2022-07-30T03:03:17;15.60;99.90
29417;DHT22;28421;51.030;4.006;2022-07-30T03:05:43;15.50;99.90
29417;DHT22;28421;51.030;4.006;2022-07-30T03:08:10;15.40;99.90
29417;DHT22;28421;51.030;4.006;2022-07-30T03:10:38;15.20;99.90
29417;DHT22;28421;51.030;4.006;2022-07-30T03:13:06;15.20;99.90
29417;DHT22;28421;51.030;4.006;2022-07-30T03:15:36;15.10;99.90
29417;DHT22;28421;51.030;4.006;2022-07-30T03:18:04;15.20;99.90
29417;DHT22;28421;51.030;4.006;2022-07-30T03:20:33;15.20;99.90
29417;DHT22;28421;51.030;4.006;2022-07-30T03:23:00;15.00;99.90
29417;DHT22;28421;51.030;4.006;2022-07-30T03:25:28;14.90;99.90
29417;DHT22;28421;51.030;4.006;2022-07-30T03:27:56;14.80;99.90
29417;DHT22;28421;51.030;4.006;2022-07-30T03:30:23;14.60;99.90
29417;DHT22;28421;51.030;4.006;2022-07-30T03:32:52;14.60;99.90
29417;DHT22;28421;51.030;4.006;2022-07-30T03:35:18;14.50;99.90
29417;DHT22;28421;51.030;4.006;2022-07-30T03:37:47;14.50;99.90
29417;DHT22;28421;51.030;4.006;2022-07-30T03:40:14;14.80;99.90
29417;DHT22;28421;51.030;4.006;2022-07-30T03:42:40;14.50;99.90
29417;DHT22;28421;51.030;4.006;2022-07-30T03:45:06;14.30;99.90
29417;DHT22;28421;51.030;4.006;2022-07-30T03:47:36;14.20;99.90
29417;DHT22;28421;51.030;4.006;2022-07-30T03:50:04;14.40;99.90
29417;DHT22;28421;51.030;4.006;2022-07-30T03:52:37;14.70;99.90
29417;DHT22;28421;51.030;4.006;2022-07-30T03:55:07;14.50;99.90
29417;DHT22;28421;51.030;4.006;2022-07-30T03:57:48;14.80;99.90
29417;DHT22;28421;51.030;4.006;2022-07-30T04:00:15;14.50;99.90
29417;DHT22;28421;51.030;4.006;2022-07-30T04:02:50;14.70;99.90
29417;DHT22;28421;51.030;4.006;2022-07-30T04:05:32;15.00;99.90
29417;DHT22;28421;51.030;4.006;2022-07-30T04:08:00;14.90;99.90
29417;DHT22;28421;51.030;4.006;2022-07-30T04:10:27;15.00;99.90
29417;DHT22;28421;51.030;4.006;2022-07-30T04:12:56;15.10;99.90
29417;DHT22;28421;51.030;4.006;2022-07-30T04:15:24;15.10;99.90
29417;DHT22;28421;51.030;4.006;2022-07-30T04:17:57;15.20;99.90
29417;DHT22;28421;51.030;4.006;2022-07-30T04:20:36;15.10;99.90
29417;DHT22;28421;51.030;4.006;2022-07-30T04:23:04;14.90;99.90
29417;DHT22;28421;51.030;4.006;2022-07-30T04:25:32;14.90;99.90
29417;DHT22;28421;51.030;4.006;2022-07-30T04:27:58;14.80;99.90
29417;DHT22;28421;51.030;4.006;2022-07-30T04:30:24;14.90;99.90
29417;DHT22;28421;51.030;4.006;2022-07-30T04:32:50;15.10;99.90
29417;DHT22;28421;51.030;4.006;2022-07-30T04:35:35;15.10;99.90
29417;DHT22;28421;51.030;4.006;2022-07-30T04:38:17;15.10;99.90
29417;DHT22;28421;51.030;4.006;2022-07-30T04:40:48;15.10;99.90
29417;DHT22;28421;51.030;4.006;2022-07-30T04:43:15;15.20;99.90
29417;DHT22;28421;51.030;4.006;2022-07-30T04:45:40;15.20;99.90
29417;DHT22;28421;51.030;4.006;2022-07-30T04:48:07;15.30;99.90
29417;DHT22;28421;51.030;4.006;2022-07-30T04:50:54;15.70;99.90
29417;DHT22;28421;51.030;4.006;2022-07-30T04:53:21;15.40;99.90
29417;DHT22;28421;51.030;4.006;2022-07-30T04:55:53;15.40;99.90
29417;DHT22;28421;51.030;4.006;2022-07-30T04:58:24;15.30;99.90
29417;DHT22;28421;51.030;4.006;2022-07-30T05:00:53;15.40;99.90
29417;DHT22;28421;51.030;4.006;2022-07-30T05:03:24;15.30;99.90
29417;DHT22;28421;51.030;4.006;2022-07-30T05:05:52;15.40;99.90
29417;DHT22;28421;51.030;4.006;2022-07-30T05:08:20;15.40;99.90
29417;DHT22;28421;51.030;4.006;2022-07-30T05:10:48;15.50;99.90
29417;DHT22;28421;51.030;4.006;2022-07-30T05:13:14;15.60;99.90
29417;DHT22;28421;51.030;4.006;2022-07-30T05:15:42;15.60;99.90
29417;DHT22;28421;51.030;4.006;2022-07-30T05:18:10;15.70;99.90
29417;DHT22;28421;51.030;4.006;2022-07-30T05:20:40;15.70;99.90
29417;DHT22;28421;51.030;4.006;2022-07-30T05:23:13;15.90;99.90
29417;DHT22;28421;51.030;4.006;2022-07-30T05:25:42;16.20;99.90
29417;DHT22;28421;51.030;4.006;2022-07-30T05:28:15;16.00;99.90
29417;DHT22;28421;51.030;4.006;2022-07-30T05:30:42;16.10;99.90
29417;DHT22;28421;51.030;4.006;2022-07-30T05:33:11;16.40;99.90
29417;DHT22;28421;51.030;4.006;2022-07-30T05:35:36;16.50;99.90
29417;DHT22;28421;51.030;4.006;2022-07-30T05:38:02;16.30;99.90
29417;DHT22;28421;51.030;4.006;2022-07-30T05:40:36;16.40;99.90
29417;DHT22;28421;51.030;4.006;2022-07-30T05:43:20;16.30;99.90
29417;DHT22;28421;51.030;4.006;2022-07-30T05:45:45;16.30;99.90
29417;DHT22;28421;51.030;4.006;2022-07-30T05:48:11;16.20;99.90
29417;DHT22;28421;51.030;4.006;2022-07-30T05:50:37;16.40;99.90
29417;DHT22;28421;51.030;4.006;2022-07-30T05:53:03;16.50;99.90
29417;DHT22;28421;51.030;4.006;2022-07-30T05:56:00;16.50;99.90
29417;DHT22;28421;51.030;4.006;2022-07-30T05:58:55;16.50;99.90
29417;DHT22;28421;51.030;4.006;2022-07-30T06:01:39;16.50;99.90
29417;DHT22;28421;51.030;4.006;2022-07-30T06:04:13;16.60;99.90
29417;DHT22;28421;51.030;4.006;2022-07-30T06:06:48;16.60;99.90
29417;DHT22;28421;51.030;4.006;2022-07-30T06:09:14;16.60;99.90
29417;DHT22;28421;51.030;4.006;2022-07-30T06:11:40;16.70;99.90
29417;DHT22;28421;51.030;4.006;2022-07-30T06:14:06;16.10;99.90
29417;DHT22;28421;51.030;4.006;2022-07-30T06:16:32;16.80;99.90
29417;DHT22;28421;51.030;4.006;2022-07-30T06:18:58;16.80;99.90
29417;DHT22;28421;51.030;4.006;2022-07-30T06:21:36;16.90;99.90
29417;DHT22;28421;51.030;4.006;2022-07-30T06:24:07;16.90;99.90
29417;DHT22;28421;51.030;4.006;2022-07-30T06:26:38;16.60;99.90
29417;DHT22;28421;51.030;4.006;2022-07-30T06:29:05;16.90;99.90
29417;DHT22;28421;51.030;4.006;2022-07-30T06:31:32;17.10;99.90
29417;DHT22;28421;51.030;4.006;2022-07-30T06:33:59;16.90;99.90
29417;DHT22;28421;51.030;4.006;2022-07-30T06:36:29;17.30;99.90
29417;DHT22;28421;51.030;4.006;2022-07-30T06:39:01;17.30;99.90
29417;DHT22;28421;51.030;4.006;2022-07-30T06:41:41;17.50;99.90
29417;DHT22;28421;51.030;4.006;2022-07-30T06:44:07;17.20;99.90
29417;DHT22;28421;51.030;4.006;2022-07-30T06:46:56;16.90;99.90
29417;DHT22;28421;51.030;4.006;2022-07-30T06:49:24;17.40;99.90
29417;DHT22;28421;51.030;4.006;2022-07-30T06:51:50;17.60;99.90
29417;DHT22;28421;51.030;4.006;2022-07-30T06:54:16;17.70;99.90
29417;DHT22;28421;51.030;4.006;2022-07-30T06:57:21;18.20;99.90
29417;DHT22;28421;51.030;4.006;2022-07-30T06:59:47;17.60;99.90
29417;DHT22;28421;51.030;4.006;2022-07-30T07:02:25;17.90;99.90
29417;DHT22;28421;51.030;4.006;2022-07-30T07:10:05;18.00;99.90
29417;DHT22;28421;51.030;4.006;2022-07-30T07:12:49;18.20;99.90
29417;DHT22;28421;51.030;4.006;2022-07-30T07:15:18;18.20;99.90
29417;DHT22;28421;51.030;4.006;2022-07-30T07:17:44;18.20;99.90
29417;DHT22;28421;51.030;4.006;2022-07-30T07:20:33;18.30;99.90
29417;DHT22;28421;51.030;4.006;2022-07-30T07:23:03;18.20;99.90
29417;DHT22;28421;51.030;4.006;2022-07-30T07:25:30;18.30;99.90
29417;DHT22;28421;51.030;4.006;2022-07-30T07:27:55;18.30;99.90
29417;DHT22;28421;51.030;4.006;2022-07-30T07:30:21;18.30;99.90
29417;DHT22;28421;51.030;4.006;2022-07-30T07:32:47;18.50;99.90
29417;DHT22;28421;51.030;4.006;2022-07-30T07:35:14;18.90;99.90
29417;DHT22;28421;51.030;4.006;2022-07-30T07:37:43;19.20;99.90
29417;DHT22;28421;51.030;4.006;2022-07-30T07:40:16;19.40;99.90
29417;DHT22;28421;51.030;4.006;2022-07-30T07:42:42;19.20;99.90
29417;DHT22;28421;51.030;4.006;2022-07-30T07:45:08;19.80;99.90
29417;DHT22;28421;51.030;4.006;2022-07-30T07:47:45;19.80;99.90
29417;DHT22;28421;51.030;4.006;2022-07-30T07:50:17;20.60;99.90
29417;DHT22;28421;51.030;4.006;2022-07-30T07:52:44;20.20;99.90
29417;DHT22;28421;51.030;4.006;2022-07-30T07:55:12;20.40;99.90
29417;DHT22;28421;51.030;4.006;2022-07-30T07:57:42;20.80;99.90
29417;DHT22;28421;51.030;4.006;2022-07-30T08:00:12;20.60;99.90
29417;DHT22;28421;51.030;4.006;2022-07-30T08:02:46;20.60;99.90
29417;DHT22;28421;51.030;4.006;2022-07-30T08:05:13;20.90;99.90
29417;DHT22;28421;51.030;4.006;2022-07-30T08:07:39;21.30;99.90
29417;DHT22;28421;51.030;4.006;2022-07-30T08:10:20;21.40;99.90
29417;DHT22;28421;51.030;4.006;2022-07-30T08:13:09;21.80;99.90
29417;DHT22;28421;51.030;4.006;2022-07-30T08:15:54;21.90;99.90
29417;DHT22;28421;51.030;4.006;2022-07-30T08:18:38;21.60;99.90
29417;DHT22;28421;51.030;4.006;2022-07-30T08:21:36;21.60;99.90
29417;DHT22;28421;51.030;4.006;2022-07-30T08:24:02;21.50;99.90
29417;DHT22;28421;51.030;4.006;2022-07-30T08:26:30;21.70;99.90
29417;DHT22;28421;51.030;4.006;2022-07-30T08:28:56;21.90;99.90
29417;DHT22;28421;51.030;4.006;2022-07-30T08:31:22;22.10;99.90
29417;DHT22;28421;51.030;4.006;2022-07-30T08:33:48;22.10;99.90
29417;DHT22;28421;51.030;4.006;2022-07-30T08:36:14;22.10;99.90
29417;DHT22;28421;51.030;4.006;2022-07-30T08:38:40;22.30;99.90
29417;DHT22;28421;51.030;4.006;2022-07-30T08:41:06;22.50;99.90
29417;DHT22;28421;51.030;4.006;2022-07-30T08:43:34;22.50;99.90
29417;DHT22;28421;51.030;4.006;2022-07-30T08:46:01;22.70;99.90
29417;DHT22;28421;51.030;4.006;2022-07-30T08:48:51;23.30;99.90
29417;DHT22;28421;51.030;4.006;2022-07-30T08:51:18;22.90;99.90
29417;DHT22;28421;51.030;4.006;2022-07-30T08:54:13;23.10;99.90
29417;DHT22;28421;51.030;4.006;2022-07-30T08:56:40;23.20;99.90
29417;DHT22;28421;51.030;4.006;2022-07-30T08:59:06;24.00;99.90
29417;DHT22;28421;51.030;4.006;2022-07-30T09:01:32;23.30;99.90
29417;DHT22;28421;51.030;4.006;2022-07-30T09:03:58;23.00;99.90
29417;DHT22;28421;51.030;4.006;2022-07-30T09:06:26;22.80;99.90
29417;DHT22;28421;51.030;4.006;2022-07-30T09:08:52;23.00;99.90
29417;DHT22;28421;51.030;4.006;2022-07-30T09:11:17;23.20;99.70
29417;DHT22;28421;51.030;4.006;2022-07-30T09:13:43;23.50;99.50
29417;DHT22;28421;51.030;4.006;2022-07-30T09:16:25;23.90;99.20
29417;DHT22;28421;51.030;4.006;2022-07-30T09:18:54;24.10;99.90
29417;DHT22;28421;51.030;4.006;2022-07-30T09:21:27;24.40;99.90
29417;DHT22;28421;51.030;4.006;2022-07-30T09:24:16;24.80;99.90
29417;DHT22;28421;51.030;4.006;2022-07-30T09:26:59;24.80;99.90
29417;DHT22;28421;51.030;4.006;2022-07-30T09:29:57;24.60;99.90
29417;DHT22;28421;51.030;4.006;2022-07-30T09:32:54;24.90;99.90
29417;DHT22;28421;51.030;4.006;2022-07-30T09:38:11;24.80;99.90
29417;DHT22;28421;51.030;4.006;2022-07-30T09:41:00;25.00;99.30
29417;DHT22;28421;51.030;4.006;2022-07-30T09:43:28;25.20;99.90
29417;DHT22;28421;51.030;4.006;2022-07-30T09:46:06;25.00;99.90
29417;DHT22;28421;51.030;4.006;2022-07-30T09:48:32;25.20;96.40
29417;DHT22;28421;51.030;4.006;2022-07-30T09:50:58;25.10;99.90
29417;DHT22;28421;51.030;4.006;2022-07-30T09:53:23;25.00;96.10
29417;DHT22;28421;51.030;4.006;2022-07-30T09:55:49;24.80;99.90
29417;DHT22;28421;51.030;4.006;2022-07-30T09:58:15;24.80;99.90
29417;DHT22;28421;51.030;4.006;2022-07-30T10:00:42;25.10;96.70
29417;DHT22;28421;51.030;4.006;2022-07-30T10:03:30;25.80;96.50
29417;DHT22;28421;51.030;4.006;2022-07-30T10:08:50;25.50;95.10
29417;DHT22;28421;51.030;4.006;2022-07-30T10:11:21;25.60;95.60
29417;DHT22;28421;51.030;4.006;2022-07-30T10:13:53;25.50;95.70
29417;DHT22;28421;51.030;4.006;2022-07-30T10:16:19;25.50;99.90
29417;DHT22;28421;51.030;4.006;2022-07-30T10:21:31;25.50;97.90
29417;DHT22;28421;51.030;4.006;2022-07-30T10:24:16;25.00;99.90
29417;DHT22;28421;51.030;4.006;2022-07-30T10:27:18;25.70;97.70
29417;DHT22;28421;51.030;4.006;2022-07-30T10:29:56;25.70;99.90
29417;DHT22;28421;51.030;4.006;2022-07-30T10:32:22;25.30;97.90
29417;DHT22;28421;51.030;4.006;2022-07-30T10:37:15;25.90;99.90
29417;DHT22;28421;51.030;4.006;2022-07-30T10:47:40;26.10;95.90
29417;DHT22;28421;51.030;4.006;2022-07-30T10:55:33;24.90;96.70
29417;DHT22;28421;51.030;4.006;2022-07-30T10:58:11;25.60;96.90
29417;DHT22;28421;51.030;4.006;2022-07-30T11:00:58;25.90;99.90
29417;DHT22;28421;51.030;4.006;2022-07-30T11:03:25;27.20;96.70
29417;DHT22;28421;51.030;4.006;2022-07-30T11:08:41;27.50;95.20
29417;DHT22;28421;51.030;4.006;2022-07-30T11:13:52;27.40;94.30
29417;DHT22;28421;51.030;4.006;2022-07-30T11:19:12;26.70;94.00
29417;DHT22;28421;51.030;4.006;2022-07-30T11:21:42;26.40;99.90
29417;DHT22;28421;51.030;4.006;2022-07-30T11:24:46;26.10;99.90
29417;DHT22;28421;51.030;4.006;2022-07-30T11:27:34;26.60;99.90
29417;DHT22;28421;51.030;4.006;2022-07-30T11:30:00;27.50;99.90
29417;DHT22;28421;51.030;4.006;2022-07-30T11:32:34;27.30;99.90
29417;DHT22;28421;51.030;4.006;2022-07-30T11:43:32;26.40;93.50
29417;DHT22;28421;51.030;4.006;2022-07-30T11:48:35;25.90;94.50
29417;DHT22;28421;51.030;4.006;2022-07-30T11:51:02;26.00;94.80
29417;DHT22;28421;51.030;4.006;2022-07-30T11:53:28;26.10;95.00
29417;DHT22;28421;51.030;4.006;2022-07-30T11:55:55;26.10;99.90
29417;DHT22;28421;51.030;4.006;2022-07-30T11:58:35;26.30;99.90
29417;DHT22;28421;51.030;4.006;2022-07-30T12:01:15;26.60;99.90
29417;DHT22;28421;51.030;4.006;2022-07-30T12:03:42;26.80;99.90
29417;DHT22;28421;51.030;4.006;2022-07-30T12:06:13;27.30;99.90
29417;DHT22;28421;51.030;4.006;2022-07-30T12:08:44;26.90;99.90
29417;DHT22;28421;51.030;4.006;2022-07-30T12:11:10;27.40;98.30
29417;DHT22;28421;51.030;4.006;2022-07-30T12:13:38;26.70;99.90
29417;DHT22;28421;51.030;4.006;2022-07-30T12:16:08;27.90;99.90
29417;DHT22;28421;51.030;4.006;2022-07-30T12:18:34;27.70;93.80
29417;DHT22;28421;51.030;4.006;2022-07-30T12:21:02;27.70;92.70
29417;DHT22;28421;51.030;4.006;2022-07-30T12:23:28;27.70;99.90
29417;DHT22;28421;51.030;4.006;2022-07-30T12:25:55;27.70;99.90
29417;DHT22;28421;51.030;4.006;2022-07-30T12:28:26;27.90;93.50
29417;DHT22;28421;51.030;4.006;2022-07-30T12:30:53;28.30;92.40
29417;DHT22;28421;51.030;4.006;2022-07-30T12:33:19;28.70;92.40
29417;DHT22;28421;51.030;4.006;2022-07-30T12:38:14;28.60;91.50
29417;DHT22;28421;51.030;4.006;2022-07-30T12:46:08;29.10;90.90
29417;DHT22;28421;51.030;4.006;2022-07-30T12:48:34;28.60;91.00
29417;DHT22;28421;51.030;4.006;2022-07-30T12:51:19;28.90;91.80
29417;DHT22;28421;51.030;4.006;2022-07-30T12:56:16;27.50;98.10
29417;DHT22;28421;51.030;4.006;2022-07-30T12:58:41;27.90;90.60
29417;DHT22;28421;51.030;4.006;2022-07-30T13:01:08;28.10;98.90
29417;DHT22;28421;51.030;4.006;2022-07-30T13:03:34;27.90;90.80
29417;DHT22;28421;51.030;4.006;2022-07-30T13:08:54;28.70;99.00
29417;DHT22;28421;51.030;4.006;2022-07-30T13:11:40;28.10;98.10
29417;DHT22;28421;51.030;4.006;2022-07-30T13:14:07;28.20;90.20
29417;DHT22;28421;51.030;4.006;2022-07-30T13:16:35;28.30;89.50
29417;DHT22;28421;51.030;4.006;2022-07-30T13:19:04;28.20;89.60
29417;DHT22;28421;51.030;4.006;2022-07-30T13:21:31;28.20;99.90
29417;DHT22;28421;51.030;4.006;2022-07-30T13:23:58;27.90;90.40
29417;DHT22;28421;51.030;4.006;2022-07-30T13:26:24;27.90;98.20
29417;DHT22;28421;51.030;4.006;2022-07-30T13:28:50;27.90;99.40
29417;DHT22;28421;51.030;4.006;2022-07-30T13:31:16;27.90;98.10
29417;DHT22;28421;51.030;4.006;2022-07-30T13:33:43;28.40;90.20
29417;DHT22;28421;51.030;4.006;2022-07-30T13:36:09;29.30;97.60
29417;DHT22;28421;51.030;4.006;2022-07-30T13:38:35;29.30;89.50
29417;DHT22;28421;51.030;4.006;2022-07-30T13:41:00;29.80;87.40
29417;DHT22;28421;51.030;4.006;2022-07-30T13:43:26;29.60;86.60
29417;DHT22;28421;51.030;4.006;2022-07-30T13:45:52;30.00;86.40
29417;DHT22;28421;51.030;4.006;2022-07-30T13:48:19;30.30;84.70
29417;DHT22;28421;51.030;4.006;2022-07-30T13:50:45;30.50;83.30
29417;DHT22;28421;51.030;4.006;2022-07-30T13:53:11;30.30;80.70
29417;DHT22;28421;51.030;4.006;2022-07-30T13:55:38;30.50;81.60
29417;DHT22;28421;51.030;4.006;2022-07-30T13:58:04;30.60;81.80
29417;DHT22;28421;51.030;4.006;2022-07-30T14:00:31;30.40;81.60
29417;DHT22;28421;51.030;4.006;2022-07-30T14:02:59;30.40;81.70
29417;DHT22;28421;51.030;4.006;2022-07-30T14:05:25;30.20;80.90
29417;DHT22;28421;51.030;4.006;2022-07-30T14:07:51;30.40;81.60
29417;DHT22;28421;51.030;4.006;2022-07-30T14:10:17;30.60;82.10
29417;DHT22;28421;51.030;4.006;2022-07-30T14:12:47;30.50;80.50
29417;DHT22;28421;51.030;4.006;2022-07-30T14:15:13;30.60;93.10
29417;DHT22;28421;51.030;4.006;2022-07-30T14:17:39;29.90;80.50
29417;DHT22;28421;51.030;4.006;2022-07-30T14:20:05;29.70;94.40
29417;DHT22;28421;51.030;4.006;2022-07-30T14:22:30;30.10;82.40
29417;DHT22;28421;51.030;4.006;2022-07-30T14:24:56;30.20;81.50
29417;DHT22;28421;51.030;4.006;2022-07-30T14:27:22;29.80;81.70
29417;DHT22;28421;51.030;4.006;2022-07-30T14:29:47;29.70;81.80
29417;DHT22;28421;51.030;4.006;2022-07-30T14:32:13;29.40;83.30
29417;DHT22;28421;51.030;4.006;2022-07-30T14:34:39;29.20;82.30
29417;DHT22;28421;51.030;4.006;2022-07-30T14:39:30;28.50;82.40
29417;DHT22;28421;51.030;4.006;2022-07-30T14:41:56;27.80;84.80
29417;DHT22;28421;51.030;4.006;2022-07-30T14:44:22;27.60;85.00
29417;DHT22;28421;51.030;4.006;2022-07-30T14:46:48;28.00;96.10
29417;DHT22;28421;51.030;4.006;2022-07-30T14:49:14;28.00;85.80
29417;DHT22;28421;51.030;4.006;2022-07-30T14:51:40;28.50;84.20
29417;DHT22;28421;51.030;4.006;2022-07-30T14:54:06;28.90;82.70
29417;DHT22;28421;51.030;4.006;2022-07-30T14:56:32;29.00;82.30
29417;DHT22;28421;51.030;4.006;2022-07-30T14:58:58;29.20;82.60
29417;DHT22;28421;51.030;4.006;2022-07-30T15:01:23;29.30;81.90
29417;DHT22;28421;51.030;4.006;2022-07-30T15:03:49;29.20;82.20
29417;DHT22;28421;51.030;4.006;2022-07-30T15:06:16;29.20;82.80
29417;DHT22;28421;51.030;4.006;2022-07-30T15:08:42;29.30;80.80
29417;DHT22;28421;51.030;4.006;2022-07-30T15:11:10;29.50;82.20
29417;DHT22;28421;51.030;4.006;2022-07-30T15:13:35;29.70;81.60
29417;DHT22;28421;51.030;4.006;2022-07-30T15:16:01;29.90;80.60
29417;DHT22;28421;51.030;4.006;2022-07-30T15:20:53;29.80;80.00
29417;DHT22;28421;51.030;4.006;2022-07-30T15:23:19;29.30;81.30
29417;DHT22;28421;51.030;4.006;2022-07-30T15:25:45;29.30;81.50
29417;DHT22;28421;51.030;4.006;2022-07-30T15:28:13;29.10;81.60
29417;DHT22;28421;51.030;4.006;2022-07-30T15:30:39;28.60;83.00
29417;DHT22;28421;51.030;4.006;2022-07-30T15:35:31;28.80;94.30
29417;DHT22;28421;51.030;4.006;2022-07-30T15:37:57;28.70;81.00
29417;DHT22;28421;51.030;4.006;2022-07-30T15:40:23;28.80;81.40
29417;DHT22;28421;51.030;4.006;2022-07-30T15:42:49;29.00;80.60
29417;DHT22;28421;51.030;4.006;2022-07-30T15:45:15;29.00;80.70
29417;DHT22;28421;51.030;4.006;2022-07-30T15:47:41;29.00;93.40
29417;DHT22;28421;51.030;4.006;2022-07-30T15:50:07;29.30;80.60
29417;DHT22;28421;51.030;4.006;2022-07-30T15:52:33;29.30;81.10
29417;DHT22;28421;51.030;4.006;2022-07-30T15:55:02;29.10;81.10
29417;DHT22;28421;51.030;4.006;2022-07-30T15:57:28;29.00;80.40
29417;DHT22;28421;51.030;4.006;2022-07-30T15:59:54;28.80;82.40
29417;DHT22;28421;51.030;4.006;2022-07-30T16:02:20;28.70;82.40
29417;DHT22;28421;51.030;4.006;2022-07-30T16:04:46;28.30;82.70
29417;DHT22;28421;51.030;4.006;2022-07-30T16:07:11;28.30;83.60
29417;DHT22;28421;51.030;4.006;2022-07-30T16:09:37;28.00;84.00
29417;DHT22;28421;51.030;4.006;2022-07-30T16:12:03;27.80;84.80
29417;DHT22;28421;51.030;4.006;2022-07-30T16:14:29;27.60;85.30
29417;DHT22;28421;51.030;4.006;2022-07-30T16:16:54;27.40;85.30
29417;DHT22;28421;51.030;4.006;2022-07-30T16:19:20;27.80;83.70
29417;DHT22;28421;51.030;4.006;2022-07-30T16:21:46;28.00;84.10
29417;DHT22;28421;51.030;4.006;2022-07-30T16:24:11;28.40;83.50
29417;DHT22;28421;51.030;4.006;2022-07-30T16:26:37;28.30;83.60
29417;DHT22;28421;51.030;4.006;2022-07-30T16:29:03;28.30;83.30
29417;DHT22;28421;51.030;4.006;2022-07-30T16:31:29;28.30;83.70
29417;DHT22;28421;51.030;4.006;2022-07-30T16:33:55;28.10;83.10
29417;DHT22;28421;51.030;4.006;2022-07-30T16:36:21;27.70;83.60
29417;DHT22;28421;51.030;4.006;2022-07-30T16:38:46;27.50;84.30
29417;DHT22;28421;51.030;4.006;2022-07-30T16:41:12;27.80;84.80
29417;DHT22;28421;51.030;4.006;2022-07-30T16:46:04;28.80;96.00
29417;DHT22;28421;51.030;4.006;2022-07-30T16:48:30;28.50;95.40
29417;DHT22;28421;51.030;4.006;2022-07-30T16:50:57;28.90;82.50
29417;DHT22;28421;51.030;4.006;2022-07-30T16:53:23;28.90;83.00
29417;DHT22;28421;51.030;4.006;2022-07-30T16:55:49;29.20;82.30
29417;DHT22;28421;51.030;4.006;2022-07-30T16:58:15;29.40;81.90
29417;DHT22;28421;51.030;4.006;2022-07-30T17:00:41;29.40;94.60
29417;DHT22;28421;51.030;4.006;2022-07-30T17:03:07;29.60;82.60